Airfield :
LOGIN :

Register | Disclaimer

   EN    FR    IT 

 










Legend :    VFR   Marginal VFR   IFR   Intensive IFR   Very Intensive IFR
Visi :
Ceiling :
>= 8 km
>= 3000ft
5 to 8 km
1000 to 3000 ft
1500m to 5 km
500 to 1000 ft
800 to 1500m
200 to 500 ft
< 800m
< 200 ft
Symbols :   Thunderstorms  Fog  Heavy snow  Heavy precipitations  Wind > 20 kt
SIGMETs :     Misc.  Thunderstorms  Icing  Turbulence  Mountain Waves  Volcanic Ashes







- Airport Elevation : 53 ft
- IATA code : LBC


EDHL - Lübeck

CURRENT METAR :
  • 191050Z 24004KT CAVOK 04/M01 Q1020

EXPIRED METARs :
  • 191020Z 21003KT 170V240 CAVOK 03/M01 Q1021
  • 190950Z 21004KT 150V260 CAVOK 02/M01 Q1021
  • 190920Z VRB02KT CAVOK 01/M02 Q1021
  • 190850Z 19002KT CAVOK 01/M02 Q1021
  • 190820Z VRB02KT CAVOK 00/M01 Q1021

TAF TAF EDHL
Valid from the 19 at 09:00 until the 19 at 18:00 UTC


190800Z 1909/1918 17002KT CAVOK
No reported NOTAMs for that airfield.



MET'MAP, your aeronautical weather chart ! - Copyright ORBIFLY December 2007 - Disclaimer

ORBIFLY MET'MAP TEAM :

Programming & Development : Alexandra Zaïnal
Concept & Development : Baudouin d'Aumeries
Co-Development & Prog : Marc-Olivier Méhu
Technical & hardware support : Manuel Goepfert

Contact : metmap@orbifly.com




SOURCES & CREDITS :

   NOAA